Time;durP1;ratioP1;P1;durP2;ratioP2;P2;SDS_P1;SDS_P2;PMS_P1;PMS_P2;Temp;Humidity;BMP_temperature;BMP_pressure;BME280_temperature;BME280_humidity;BME280_pressure;Samples;Min_cycle;Max_cycle;Signal;HPM_P1;HPM_P2
2023/05/26 00:03:44;;;;;;;12.18;6.95;;;;;;;11.74;100.00;100590.63;12205056;19;20090;-78
2023/05/26 00:07:47;;;;;;;16.60;7.93;;;;;;;11.70;100.00;100604.06;12210288;19;20070;-78
2023/05/26 00:11:49;;;;;;;12.20;7.23;;;;;;;11.62;100.00;100599.72;12188543;19;20010;-79
2023/05/26 00:15:50;;;;;;;15.65;8.07;;;;;;;11.59;100.00;100602.13;12208840;19;20255;-78
2023/05/26 00:19:52;;;;;;;13.30;7.22;;;;;;;11.55;100.00;100600.94;12207158;19;20074;-79
2023/05/26 00:23:54;;;;;;;13.13;7.15;;;;;;;11.50;100.00;100587.00;12185762;19;20014;-79
2023/05/26 00:27:56;;;;;;;16.67;7.45;;;;;;;11.43;100.00;100592.63;12208006;19;20027;-79
2023/05/26 00:31:58;;;;;;;13.53;7.83;;;;;;;11.35;100.00;100588.28;12202261;19;20023;-78
2023/05/26 00:36:00;;;;;;;13.27;7.03;;;;;;;11.32;100.00;100590.66;12187433;19;20014;-78
2023/05/26 00:40:02;;;;;;;12.93;6.72;;;;;;;11.24;100.00;100586.31;12214535;19;20010;-79
2023/05/26 00:44:04;;;;;;;16.00;7.95;;;;;;;11.18;100.00;100584.50;12209688;19;20070;-81
2023/05/26 00:48:06;;;;;;;15.87;7.73;;;;;;;11.12;100.00;100585.44;12217511;19;20366;-79
2023/05/26 00:52:09;;;;;;;13.88;7.07;;;;;;;11.06;100.00;100583.63;12215943;19;20079;-79
2023/05/26 00:56:14;;;;;;;16.30;7.57;;;;;;;11.00;100.00;100576.28;12190505;19;20031;-78
2023/05/26 01:00:17;;;;;;;13.70;7.15;;;;;;;10.94;100.00;100578.91;12207361;19;20510;-79
2023/05/26 01:04:20;;;;;;;14.23;7.53;;;;;;;10.89;100.00;100566.91;12199990;19;20086;-78
2023/05/26 01:08:22;;;;;;;11.18;7.20;;;;;;;10.84;100.00;100573.13;12186610;19;20552;-79
2023/05/26 01:12:32;;;;;;;14.50;7.95;;;;;;;10.82;100.00;100579.94;12208021;19;20086;-79
2023/05/26 01:16:39;;;;;;;13.23;7.97;;;;;;;10.77;100.00;100577.88;12210001;19;20021;-79
2023/05/26 01:20:51;;;;;;;13.18;7.15;;;;;;;10.76;100.00;100587.22;12186288;19;20023;-80
2023/05/26 01:25:06;;;;;;;14.63;7.90;;;;;;;10.69;100.00;100592.81;12205893;19;20002;-79
2023/05/26 01:29:11;;;;;;;17.17;9.07;;;;;;;10.66;100.00;100592.44;12184760;19;20006;-78
2023/05/26 01:33:13;;;;;;;11.80;7.68;;;;;;;10.59;100.00;100589.78;12207373;19;20010;-79
2023/05/26 01:37:16;;;;;;;18.70;8.67;;;;;;;10.56;100.00;100593.00;12205788;19;20757;-79
2023/05/26 01:41:39;;;;;;;16.95;8.10;;;;;;;10.56;100.00;100589.38;12186231;19;20015;-79
2023/05/26 01:45:46;;;;;;;15.95;7.03;;;;;;;10.54;100.00;100592.38;12204249;19;20006;-79
2023/05/26 01:49:50;;;;;;;14.43;7.47;;;;;;;10.49;100.00;100589.47;12206471;19;20010;-78
2023/05/26 01:53:59;;;;;;;16.77;8.35;;;;;;;10.47;100.00;100595.22;12182973;19;20021;-79
2023/05/26 01:58:01;;;;;;;13.52;7.25;;;;;;;10.41;100.00;100596.16;12203160;19;20014;-78
2023/05/26 02:02:07;;;;;;;14.73;7.20;;;;;;;10.38;100.00;100592.97;12194309;19;20018;-78
2023/05/26 02:06:11;;;;;;;18.98;8.70;;;;;;;10.31;100.00;100595.81;12217435;19;20010;-79
2023/05/26 02:10:13;;;;;;;13.60;7.70;;;;;;;10.27;100.00;100595.44;12215656;19;20015;-78
2023/05/26 02:14:16;;;;;;;12.93;7.90;;;;;;;10.23;100.00;100594.19;12192072;19;20035;-78
2023/05/26 02:18:21;;;;;;;14.50;7.78;;;;;;;10.21;100.00;100590.81;12215055;19;20007;-78
2023/05/26 02:22:23;;;;;;;12.60;8.20;;;;;;;10.16;100.00;100581.56;12215280;19;20028;-79
2023/05/26 02:26:25;;;;;;;9.02;5.72;;;;;;;10.12;100.00;100585.84;12193435;19;20026;-78
2023/05/26 02:30:26;;;;;;;15.38;8.90;;;;;;;10.07;100.00;100583.75;12215470;19;20597;-78
2023/05/26 02:34:29;;;;;;;15.50;8.15;;;;;;;9.97;100.00;100589.78;12215379;19;20020;-79
2023/05/26 02:38:31;;;;;;;18.58;8.15;;;;;;;9.93;100.00;100591.28;12184747;19;20018;-78
2023/05/26 02:42:33;;;;;;;12.10;7.77;;;;;;;9.87;100.00;100585.84;12213678;19;20018;-79
2023/05/26 02:46:35;;;;;;;15.40;8.30;;;;;;;9.83;100.00;100579.97;12214183;19;20014;-78
2023/05/26 02:50:36;;;;;;;16.65;7.75;;;;;;;9.79;100.00;100576.00;12190751;19;20014;-78
2023/05/26 02:54:38;;;;;;;14.68;8.05;;;;;;;9.79;100.00;100587.00;12214312;19;20002;-79
2023/05/26 02:58:40;;;;;;;18.30;8.68;;;;;;;9.76;100.00;100584.72;12212684;19;20002;-78
2023/05/26 03:02:42;;;;;;;19.50;8.07;;;;;;;9.72;100.00;100589.78;12191992;19;20007;-78
2023/05/26 03:06:44;;;;;;;15.50;8.43;;;;;;;9.70;100.00;100591.94;12212524;19;20715;-78
2023/05/26 03:10:48;;;;;;;16.42;8.10;;;;;;;9.70;100.00;100593.88;12209718;19;20488;-79
2023/05/26 03:15:11;;;;;;;12.63;7.35;;;;;;;9.64;100.00;100584.59;12191856;19;20021;-78
2023/05/26 03:19:13;;;;;;;14.05;7.75;;;;;;;9.61;100.00;100585.06;12210451;19;20483;-78
2023/05/26 03:23:18;;;;;;;20.33;8.57;;;;;;;9.56;100.00;100585.72;12192599;19;20085;-78
2023/05/26 03:27:22;;;;;;;15.77;9.32;;;;;;;9.50;100.00;100588.53;12212476;19;20029;-78
2023/05/26 03:31:26;;;;;;;16.17;8.80;;;;;;;9.47;100.00;100587.06;12213008;19;20030;-79
2023/05/26 03:35:28;;;;;;;12.30;8.45;;;;;;;9.47;100.00;100589.81;12192081;19;20014;-78
2023/05/26 03:39:30;;;;;;;19.00;8.23;;;;;;;9.45;100.00;100586.44;12208581;19;20492;-79
2023/05/26 03:43:33;;;;;;;17.42;8.02;;;;;;;9.47;100.00;100583.47;12210358;19;20035;-78
2023/05/26 03:47:36;;;;;;;15.32;8.43;;;;;;;9.48;100.00;100577.72;12189378;19;20094;-78
2023/05/26 03:51:38;;;;;;;16.23;8.75;;;;;;;9.49;100.00;100586.84;12211412;19;20006;-78
2023/05/26 03:55:39;;;;;;;14.35;8.85;;;;;;;9.49;100.00;100582.19;12211597;19;20010;-78
2023/05/26 03:59:42;;;;;;;15.55;8.23;;;;;;;9.52;100.00;100592.75;12186477;19;20014;-78
2023/05/26 04:03:45;;;;;;;11.35;7.15;;;;;;;9.56;100.00;100599.47;12212754;19;20081;-78
2023/05/26 04:07:50;;;;;;;18.40;8.10;;;;;;;9.63;100.00;100591.16;12210847;19;20041;-78
2023/05/26 04:11:54;;;;;;;16.98;8.55;;;;;;;9.71;100.00;100606.56;12189683;19;20487;-78
2023/05/26 04:15:56;;;;;;;12.57;7.50;;;;;;;9.76;100.00;100601.22;12211096;19;20357;-78
2023/05/26 04:19:59;;;;;;;17.88;7.95;;;;;;;9.81;100.00;100595.88;12208721;19;20364;-78
2023/05/26 04:24:04;;;;;;;12.45;7.18;;;;;;;9.85;100.00;100597.13;12187785;19;20010;-78
2023/05/26 04:28:07;;;;;;;13.43;8.07;;;;;;;9.90;100.00;100604.69;12206022;19;19999;-78
2023/05/26 04:32:30;;;;;;;14.90;8.00;;;;;;;9.94;100.00;100606.75;12188999;19;20748;-79
2023/05/26 04:36:38;;;;;;;15.77;8.27;;;;;;;9.98;100.00;100612.66;12209950;19;20034;-79
2023/05/26 04:40:42;;;;;;;14.32;8.23;;;;;;;10.00;100.00;100616.03;12206620;19;20025;-78
2023/05/26 04:44:45;;;;;;;14.63;8.05;;;;;;;10.02;100.00;100613.88;12185818;19;20032;-78
2023/05/26 04:48:47;;;;;;;14.40;7.68;;;;;;;10.04;100.00;100614.50;12205989;19;20030;-78
2023/05/26 04:52:49;;;;;;;16.48;7.82;;;;;;;10.08;100.00;100617.63;12209366;19;20476;-78
2023/05/26 04:56:51;;;;;;;16.30;7.53;;;;;;;10.11;100.00;100618.03;12186378;19;20467;-78
2023/05/26 05:00:58;;;;;;;16.38;7.90;;;;;;;10.15;100.00;100621.19;12205460;19;20433;-78
2023/05/26 05:05:30;;;;;;;12.95;7.38;;;;;;;10.20;100.00;100619.44;12182738;19;20078;-78
2023/05/26 05:09:32;;;;;;;14.50;7.97;;;;;;;10.26;100.00;100631.44;12212063;19;20003;-79
2023/05/26 05:13:35;;;;;;;14.13;8.17;;;;;;;10.31;100.00;100631.63;12209432;19;20353;-78
2023/05/26 05:17:38;;;;;;;14.35;7.88;;;;;;;10.41;100.00;100634.72;12188056;19;20022;-79
2023/05/26 05:21:40;;;;;;;;;;;;;;;10.44;100.00;100631.50;12211548;19;20018;-79
2023/05/26 05:25:44;;;;;;;19.50;8.52;;;;;;;10.54;100.00;100630.13;12212355;19;19907;-79
2023/05/26 05:29:47;;;;;;;17.55;9.07;;;;;;;10.61;100.00;100633.63;12187154;19;20002;-80
2023/05/26 05:33:51;;;;;;;22.27;7.97;;;;;;;10.72;100.00;100636.47;12213962;19;20007;-78
2023/05/26 05:37:56;;;;;;;14.07;8.27;;;;;;;10.83;100.00;100636.78;12213918;19;20456;-78
2023/05/26 05:42:01;;;;;;;12.50;8.05;;;;;;;10.97;100.00;100642.94;12194135;19;20034;-79
2023/05/26 05:46:04;;;;;;;17.43;9.13;;;;;;;11.09;100.00;100639.16;12218323;19;19999;-78
2023/05/26 05:50:23;;;;;;;15.60;7.35;;;;;;;11.23;100.00;100642.59;12196499;19;20004;-78
2023/05/26 05:54:26;;;;;;;12.35;6.95;;;;;;;11.35;100.00;100640.69;12217934;19;20007;-78
2023/05/26 05:58:30;;;;;;;13.65;8.18;;;;;;;11.47;100.00;100642.66;12217776;19;20011;-78
2023/05/26 06:02:33;;;;;;;19.20;7.43;;;;;;;11.63;100.00;100644.75;12196468;19;20018;-78
2023/05/26 06:06:36;;;;;;;13.48;7.53;;;;;;;11.79;100.00;100643.22;12218135;19;20018;-78
2023/05/26 06:10:39;;;;;;;12.18;7.03;;;;;;;11.95;100.00;100653.59;12222205;19;20011;-78
2023/05/26 06:14:40;;;;;;;13.35;7.88;;;;;;;12.14;100.00;100657.09;12199579;19;20035;-78
2023/05/26 06:18:43;;;;;;;12.43;6.70;;;;;;;12.26;100.00;100666.25;12216532;19;20006;-78
2023/05/26 06:22:46;;;;;;;20.42;7.97;;;;;;;12.44;100.00;100672.72;12217920;19;20781;-77
2023/05/26 06:26:49;;;;;;;14.17;7.60;;;;;;;12.57;100.00;100674.38;12193835;19;20010;-78
2023/05/26 06:30:53;;;;;;;19.33;9.20;;;;;;;12.76;100.00;100679.53;12239460;19;20328;-78
2023/05/26 06:35:12;;;;;;;15.40;7.50;;;;;;;12.89;100.00;100683.97;12201856;19;20010;-83
2023/05/26 06:39:16;;;;;;;14.50;6.75;;;;;;;13.08;100.00;100676.31;12213773;19;20034;-80
2023/05/26 06:43:20;;;;;;;12.65;7.03;;;;;;;13.29;100.00;100676.75;12208625;19;20007;-80
2023/05/26 06:47:23;;;;;;;13.88;7.32;;;;;;;13.54;100.00;100673.66;12179119;19;20181;-78
2023/05/26 06:51:40;;;;;;;15.57;6.82;;;;;;;13.79;100.00;100681.59;12221378;19;20477;-79
2023/05/26 06:55:45;;;;;;;16.42;6.68;;;;;;;14.01;100.00;100688.06;12217112;19;20022;-82
2023/05/26 06:59:47;;;;;;;15.93;6.97;;;;;;;14.18;100.00;100684.44;12199379;19;20013;-79
2023/05/26 07:03:49;;;;;;;15.38;6.03;;;;;;;14.33;100.00;100688.28;12218850;19;20007;-79
2023/05/26 07:07:52;;;;;;;14.70;7.18;;;;;;;14.52;100.00;100688.09;12220295;19;20011;-79
2023/05/26 07:11:55;;;;;;;16.67;6.60;;;;;;;14.70;100.00;100687.78;12199794;19;20006;-80
2023/05/26 07:16:20;;;;;;;11.13;6.38;;;;;;;14.94;98.59;100693.94;12218943;19;20002;-79
2023/05/26 07:20:22;;;;;;;;;;;;;;;15.15;95.81;100685.88;12198644;19;20028;-79
2023/05/26 07:24:25;;;;;;;18.85;7.32;;;;;;;15.32;92.89;100699.66;12217356;19;19915;-80
2023/05/26 07:28:28;;;;;;;14.97;6.43;;;;;;;15.46;91.84;100696.22;12215952;19;20014;-79
2023/05/26 07:32:29;;;;;;;11.38;5.93;;;;;;;15.76;93.14;100694.91;12195534;19;20010;-80
2023/05/26 07:36:34;;;;;;;13.98;6.63;;;;;;;15.93;88.78;100701.19;12217903;19;20006;-81
2023/05/26 07:40:39;;;;;;;12.70;6.03;;;;;;;16.12;88.67;100698.00;12215780;19;20790;-80
2023/05/26 07:44:43;;;;;;;17.63;7.28;;;;;;;16.28;85.67;100697.03;12195916;19;20032;-80
2023/05/26 07:48:47;;;;;;;;;;;;;;;16.43;85.82;100699.09;12214505;19;20451;-81
2023/05/26 07:52:50;;;;;;;14.63;6.03;;;;;;;16.58;85.01;100699.19;12216116;19;19942;-80
2023/05/26 07:56:52;;;;;;;14.60;5.93;;;;;;;16.69;83.55;100699.28;12189855;19;20401;-80
2023/05/26 08:00:54;;;;;;;10.65;6.28;;;;;;;16.81;81.69;100700.78;12216485;19;20860;-79
2023/05/26 08:04:56;;;;;;;13.15;6.22;;;;;;;16.99;80.65;100693.06;12215582;19;20014;-80
2023/05/26 08:08:58;;;;;;;14.83;6.00;;;;;;;17.16;79.84;100696.47;12194303;19;20007;-81
2023/05/26 08:13:05;;;;;;;15.63;6.80;;;;;;;17.36;77.54;100690.13;12214908;19;20020;-80
2023/05/26 08:17:07;;;;;;;11.95;5.93;;;;;;;17.63;77.06;100694.66;12194516;19;19999;-82
2023/05/26 08:21:10;;;;;;;15.95;5.55;;;;;;;17.75;76.06;100686.88;12215156;19;20443;-81
2023/05/26 08:25:18;;;;;;;17.45;6.03;;;;;;;17.93;72.44;100691.94;12214708;19;20767;-81
2023/05/26 08:29:22;;;;;;;11.70;5.18;;;;;;;17.91;73.74;100687.78;12193449;19;20103;-79
2023/05/26 08:33:28;;;;;;;16.52;6.18;;;;;;;18.24;74.20;100683.63;12213272;19;20018;-80
2023/05/26 08:37:31;;;;;;;10.80;5.82;;;;;;;18.51;72.33;100676.88;12211673;19;20010;-79
2023/05/26 08:41:48;;;;;;;12.23;5.80;;;;;;;18.79;69.79;100678.25;12196932;19;20357;-83
2023/05/26 08:45:51;;;;;;;12.75;6.03;;;;;;;18.99;65.03;100675.38;12218828;19;20006;-82
2023/05/26 08:50:03;;;;;;;13.05;5.32;;;;;;;18.92;67.02;100676.78;12214628;19;20019;-81
2023/05/26 08:54:11;;;;;;;13.50;6.25;;;;;;;19.03;66.99;100681.22;12190634;19;20088;-81
2023/05/26 08:58:18;;;;;;;21.02;6.00;;;;;;;19.16;65.82;100683.44;12208079;19;20377;-81
2023/05/26 09:02:20;;;;;;;14.93;6.53;;;;;;;19.38;63.60;100674.66;12186114;19;20131;-81
2023/05/26 09:06:31;;;;;;;12.13;4.97;;;;;;;19.61;66.34;100677.88;12205199;19;20050;-80
2023/05/26 09:10:33;;;;;;;15.93;5.82;;;;;;;19.90;62.73;100676.03;12221182;19;20031;-80
2023/05/26 09:14:35;;;;;;;12.60;5.83;;;;;;;20.07;63.91;100680.38;12198997;19;20010;-79
2023/05/26 09:18:42;;;;;;;9.77;5.57;;;;;;;20.35;59.75;100676.78;12217402;19;20089;-79
2023/05/26 09:22:45;;;;;;;11.45;5.97;;;;;;;20.42;55.15;100680.06;12218784;19;20014;-78
2023/05/26 09:26:48;;;;;;;14.18;6.00;;;;;;;20.25;58.54;100682.44;12198254;19;20002;-81
2023/05/26 09:30:52;;;;;;;18.92;6.05;;;;;;;20.41;59.71;100681.19;12220521;19;20007;-81
2023/05/26 09:34:57;;;;;;;19.85;7.60;;;;;;;20.56;56.30;100679.41;12221216;19;20019;-81
2023/05/26 09:39:05;;;;;;;11.77;5.57;;;;;;;20.61;56.73;100682.13;12196212;19;20819;-80
2023/05/26 09:43:11;;;;;;;10.32;5.45;;;;;;;20.85;56.31;100670.94;12217071;19;20010;-82
2023/05/26 09:47:20;;;;;;;14.52;5.38;;;;;;;21.03;55.20;100672.13;12195208;19;20006;-80
2023/05/26 09:51:30;;;;;;;;;;;;;;;21.19;54.21;100672.81;12218221;19;20007;-81
2023/05/26 09:55:44;;;;;;;14.13;5.72;;;;;;;21.13;49.66;100670.06;12217567;19;19914;-81
2023/05/26 10:00:25;;;;;;;11.75;4.72;;;;;;;21.03;50.64;100675.81;12193174;19;20507;-82
2023/05/26 10:04:47;;;;;;;11.00;5.97;;;;;;;21.17;50.60;100664.69;12220962;19;20066;-82
2023/05/26 10:08:52;;;;;;;13.23;5.57;;;;;;;21.39;48.86;100662.19;12192996;19;20011;-81
2023/05/26 10:12:56;;;;;;;9.07;5.15;;;;;;;21.45;49.68;100664.94;12223633;19;20014;-81
2023/05/26 10:16:58;;;;;;;14.35;5.57;;;;;;;21.71;50.01;100659.75;12221561;19;19998;-81
2023/05/26 10:21:09;;;;;;;15.05;5.18;;;;;;;22.23;47.87;100663.44;12192371;19;20330;-80
2023/05/26 10:25:26;;;;;;;9.98;5.50;;;;;;;22.31;47.59;100654.31;12214950;19;20440;-80
2023/05/26 10:29:46;;;;;;;11.45;5.03;;;;;;;22.26;48.01;100649.63;12193626;19;20018;-79
2023/05/26 10:33:48;;;;;;;13.27;5.65;;;;;;;22.47;48.07;100652.88;12215089;19;20078;-80
2023/05/26 10:38:00;;;;;;;21.40;6.50;;;;;;;22.84;45.01;100653.03;12214135;19;20018;-80
2023/05/26 10:42:25;;;;;;;11.73;4.95;;;;;;;22.65;45.37;100645.53;12194315;19;20010;-82
2023/05/26 10:46:46;;;;;;;9.50;5.50;;;;;;;22.60;46.92;100656.03;12214352;19;20493;-80
2023/05/26 10:50:59;;;;;;;13.55;5.68;;;;;;;22.76;45.60;100648.97;12192189;19;20078;-80
2023/05/26 10:55:01;;;;;;;10.10;5.65;;;;;;;22.84;45.23;100647.41;12215947;19;20018;-80
2023/05/26 10:59:03;;;;;;;13.77;5.80;;;;;;;22.97;45.70;100646.63;12201216;19;20014;-80
2023/05/26 11:03:36;;;;;;;10.82;5.65;;;;;;;23.20;45.11;100648.38;12214581;19;20011;-81
2023/05/26 11:08:28;;;;;;;10.13;4.97;;;;;;;23.23;43.95;100643.25;12214111;19;20021;-84
2023/05/26 11:12:57;;;;;;;13.20;5.70;;;;;;;23.56;42.87;100633.50;12116322;19;2004577;-82
2023/05/26 11:17:00;;;;;;;10.25;4.82;;;;;;;23.85;43.95;100626.63;12162577;19;20349;-80
2023/05/26 11:21:07;;;;;;;10.38;4.72;;;;;;;24.23;42.72;100634.69;12212407;19;20066;-83
2023/05/26 11:25:11;;;;;;;10.65;5.03;;;;;;;24.39;40.83;100623.84;12211719;19;20014;-82
2023/05/26 11:29:14;;;;;;;12.20;4.78;;;;;;;24.22;40.86;100624.59;12194876;19;20007;-82
2023/05/26 11:33:16;;;;;;;8.93;4.63;;;;;;;24.27;40.41;100619.66;12217103;19;20010;-81
2023/05/26 11:37:21;;;;;;;9.73;4.63;;;;;;;24.29;40.39;100613.69;12222164;19;20016;-83
2023/05/26 11:41:25;;;;;;;12.00;4.80;;;;;;;24.60;39.75;100610.91;12202544;19;20019;-80
2023/05/26 11:45:27;;;;;;;9.65;5.25;;;;;;;24.61;39.16;100606.94;12220502;19;20085;-82
2023/05/26 11:49:29;;;;;;;12.02;5.07;;;;;;;24.53;37.94;100597.28;12217475;19;20003;-80
2023/05/26 11:53:32;;;;;;;10.32;4.38;;;;;;;24.62;38.59;100614.22;12199535;19;20019;-82
2023/05/26 11:57:34;;;;;;;10.57;4.43;;;;;;;24.97;39.98;100603.91;12219214;19;20014;-82
2023/05/26 12:01:37;;;;;;;10.80;5.20;;;;;;;25.58;38.25;100606.84;12217191;19;20077;-80
2023/05/26 12:05:39;;;;;;;12.38;4.97;;;;;;;25.81;38.33;100601.84;12195874;19;20011;-83
2023/05/26 12:09:41;;;;;;;8.93;4.18;;;;;;;25.97;37.79;100598.53;12219785;19;20006;-81
2023/05/26 12:13:43;;;;;;;8.18;4.45;;;;;;;26.26;35.72;100593.00;12222334;19;20019;-82
2023/05/26 12:17:46;;;;;;;10.45;4.22;;;;;;;26.67;37.22;100594.38;12206900;19;20033;-83
2023/05/26 12:21:51;;;;;;;10.98;4.95;;;;;;;27.97;34.60;100583.34;12225952;19;20002;-84
2023/05/26 12:25:54;;;;;;;10.02;4.90;;;;;;;29.22;32.32;100579.16;12222917;19;20381;-81
2023/05/26 12:29:57;;;;;;;10.70;4.72;;;;;;;29.98;31.51;100583.91;12197164;19;20010;-83
2023/05/26 12:33:59;;;;;;;12.43;5.18;;;;;;;30.45;31.15;100584.34;12218068;19;20010;-83
2023/05/26 12:38:01;;;;;;;10.05;4.22;;;;;;;31.49;29.92;100576.34;12218352;19;20034;-82
2023/05/26 12:42:05;;;;;;;9.23;4.72;;;;;;;31.62;27.54;100568.47;12197816;19;20006;-82
2023/05/26 12:46:09;;;;;;;11.20;4.55;;;;;;;31.15;28.26;100564.59;12221537;19;20003;-83
2023/05/26 12:50:12;;;;;;;11.43;6.03;;;;;;;31.20;26.93;100564.28;12196531;19;20028;-84
2023/05/26 12:54:16;;;;;;;8.85;4.80;;;;;;;31.50;27.03;100566.59;12222780;19;20081;-84
2023/05/26 12:58:21;;;;;;;10.48;4.60;;;;;;;32.21;26.82;100556.66;12218957;19;20421;-83
2023/05/26 13:02:24;;;;;;;10.57;5.05;;;;;;;33.02;25.35;100555.66;12194566;19;20614;-81
2023/05/26 13:06:29;;;;;;;9.95;4.82;;;;;;;33.79;25.60;100544.84;12217025;19;20007;-83
2023/05/26 13:10:31;;;;;;;14.57;5.15;;;;;;;34.14;23.44;100557.94;12220711;19;20015;-81
2023/05/26 13:14:33;;;;;;;7.88;4.70;;;;;;;33.74;23.67;100548.09;12236335;19;20021;-79
2023/05/26 13:18:35;;;;;;;9.35;4.90;;;;;;;34.28;23.88;100537.25;12229084;19;20027;-83
2023/05/26 13:22:44;;;;;;;12.70;4.75;;;;;;;34.54;22.99;100539.13;12222676;19;20010;-82
2023/05/26 13:26:47;;;;;;;7.32;4.43;;;;;;;34.38;22.35;100534.47;12200072;19;20466;-83
2023/05/26 13:30:50;;;;;;;7.72;4.57;;;;;;;34.84;22.50;100539.81;12222368;19;20007;-83
2023/05/26 13:34:53;;;;;;;14.23;4.32;;;;;;;35.13;22.63;100534.28;12218184;19;20003;-83
2023/05/26 13:38:55;;;;;;;9.77;4.60;;;;;;;35.53;21.73;100529.59;12192143;19;20006;-83
2023/05/26 13:42:57;;;;;;;7.50;4.18;;;;;;;35.30;21.88;100538.47;12213938;19;20015;-83
2023/05/26 13:46:59;;;;;;;7.50;4.80;;;;;;;35.59;21.68;100537.41;12215112;19;20478;-82
2023/05/26 13:51:01;;;;;;;8.15;4.40;;;;;;;36.28;20.85;100539.25;12199564;19;20003;-82
2023/05/26 13:55:04;;;;;;;10.07;4.80;;;;;;;36.47;21.32;100531.47;12223975;19;20003;-84
2023/05/26 13:59:06;;;;;;;8.82;4.05;;;;;;;36.91;20.99;100527.38;12201905;19;20010;-84
2023/05/26 14:03:08;;;;;;;8.63;4.20;;;;;;;37.72;19.26;100527.56;12222161;19;20003;-85
2023/05/26 14:07:11;;;;;;;7.80;4.13;;;;;;;37.21;19.15;100523.22;12225642;19;20010;-83
2023/05/26 14:11:17;;;;;;;8.25;4.07;;;;;;;36.28;20.73;100521.22;12206683;19;20512;-84
2023/05/26 14:15:18;;;;;;;9.13;4.53;;;;;;;36.83;20.50;100526.59;12227282;19;20007;-83
2023/05/26 14:19:20;;;;;;;8.95;4.43;;;;;;;36.66;20.12;100527.41;12222551;19;20027;-82
2023/05/26 14:23:24;;;;;;;10.80;4.50;;;;;;;36.95;20.20;100514.66;12201561;19;20133;-84
2023/05/26 14:27:28;;;;;;;11.07;3.97;;;;;;;37.55;19.93;100515.75;12219065;19;20027;-83
2023/05/26 14:31:30;;;;;;;11.13;4.55;;;;;;;37.97;19.51;100515.97;12221957;19;20717;-83
2023/05/26 14:35:32;;;;;;;11.73;4.80;;;;;;;36.76;20.84;100515.09;12199488;19;20690;-84
2023/05/26 14:39:34;;;;;;;10.07;4.70;;;;;;;36.12;20.79;100504.41;12223638;19;20459;-85
2023/05/26 14:43:39;;;;;;;10.05;4.82;;;;;;;34.34;23.04;100509.94;12225683;19;20006;-83
2023/05/26 14:47:40;;;;;;;10.13;4.68;;;;;;;32.44;24.35;100501.66;12206282;19;20014;-84
2023/05/26 14:51:43;;;;;;;12.00;5.05;;;;;;;31.16;26.24;100505.63;12229742;19;20038;-82
2023/05/26 14:55:56;;;;;;;10.98;4.95;;;;;;;30.17;27.46;100509.28;12229632;19;20021;-84
2023/05/26 14:59:58;;;;;;;16.10;5.70;;;;;;;30.35;27.32;100506.94;12196755;19;20014;-83
2023/05/26 15:04:00;;;;;;;14.38;4.63;;;;;;;30.23;27.46;100501.34;12220408;19;20006;-83
2023/05/26 15:08:16;;;;;;;11.82;4.32;;;;;;;30.27;27.15;100504.28;12201097;19;20014;-82
2023/05/26 15:12:19;;;;;;;13.68;4.47;;;;;;;31.51;26.67;100505.59;12224369;19;20013;-84
2023/05/26 15:16:22;;;;;;;14.35;4.88;;;;;;;32.30;25.80;100496.53;12222895;19;20018;-84
2023/05/26 15:20:25;;;;;;;14.73;5.10;;;;;;;31.69;26.34;100492.53;12198071;19;20018;-85
2023/05/26 15:24:27;;;;;;;14.45;4.70;;;;;;;29.46;29.06;100496.75;12222909;19;20490;-83
2023/05/26 15:28:29;;;;;;;8.93;4.63;;;;;;;28.10;30.55;100502.88;12223574;19;20031;-83
2023/05/26 15:32:31;;;;;;;;;;;;;;;27.09;32.64;100511.63;12204424;19;20002;-80
2023/05/26 15:36:33;;;;;;;14.60;4.82;;;;;;;26.08;33.75;100501.00;12225136;19;19975;-82
2023/05/26 15:40:35;;;;;;;13.05;3.97;;;;;;;25.13;35.70;100501.91;12224502;19;20011;-82
2023/05/26 15:44:37;;;;;;;11.63;4.63;;;;;;;24.93;35.58;100506.22;12204186;19;20504;-84
2023/05/26 15:48:42;;;;;;;18.15;5.75;;;;;;;24.80;36.21;100508.00;12223674;19;20019;-82
2023/05/26 15:52:45;;;;;;;13.52;4.65;;;;;;;24.24;37.70;100512.44;12226170;19;20007;-83
2023/05/26 15:56:47;;;;;;;14.85;4.45;;;;;;;23.97;38.68;100505.03;12198707;19;20011;-83
2023/05/26 16:00:50;;;;;;;16.25;4.57;;;;;;;23.59;39.34;100500.66;12219786;19;20031;-84
2023/05/26 16:04:51;;;;;;;16.83;5.70;;;;;;;23.53;39.62;100504.75;12218064;19;20344;-82
2023/05/26 16:08:53;;;;;;;16.60;4.27;;;;;;;23.44;40.22;100509.47;12195832;19;20010;-83
2023/05/26 16:12:55;;;;;;;18.02;5.35;;;;;;;23.33;40.72;100505.25;12220658;19;20255;-79
2023/05/26 16:16:57;;;;;;;15.20;5.73;;;;;;;23.18;41.14;100498.00;12220499;19;20006;-84
2023/05/26 16:21:03;;;;;;;16.10;4.40;;;;;;;22.94;41.69;100493.50;12194454;19;20263;-85
2023/05/26 16:25:06;;;;;;;13.20;4.18;;;;;;;23.04;40.83;100495.22;12229940;19;20010;-85
2023/05/26 16:29:08;;;;;;;;;;;;;;;22.85;41.05;100494.53;12196748;19;20002;-81
2023/05/26 16:33:10;;;;;;;17.50;4.87;;;;;;;22.81;41.73;100507.53;12216203;19;19917;-82
2023/05/26 16:37:12;;;;;;;13.53;4.97;;;;;;;22.75;41.80;100510.47;12217682;19;20275;-82
2023/05/26 16:41:15;;;;;;;12.00;4.80;;;;;;;22.65;41.96;100501.44;12196230;19;20038;-84
2023/05/26 16:45:16;;;;;;;11.02;4.82;;;;;;;22.58;42.48;100501.88;12211501;19;20011;-80
2023/05/26 16:49:18;;;;;;;17.13;5.07;;;;;;;22.46;42.95;100510.00;12210484;19;20571;-82
2023/05/26 16:53:20;;;;;;;13.63;5.00;;;;;;;22.30;43.18;100504.66;12195914;19;20259;-81
2023/05/26 16:57:22;;;;;;;14.93;4.63;;;;;;;22.24;43.54;100511.53;12217537;19;20071;-83
2023/05/26 17:01:24;;;;;;;14.40;4.22;;;;;;;22.08;43.56;100499.75;12215957;19;20023;-82
2023/05/26 17:05:27;;;;;;;13.10;4.55;;;;;;;21.86;44.00;100499.59;12192025;19;20123;-82
2023/05/26 17:09:29;;;;;;;;;;;;;;;21.82;44.85;100498.56;12211037;19;20014;-84
2023/05/26 17:13:32;;;;;;;15.52;4.07;;;;;;;21.80;44.24;100509.25;12216164;19;19934;-81
2023/05/26 17:17:35;;;;;;;15.57;4.53;;;;;;;21.84;44.20;100502.72;12192718;19;20017;-79
2023/05/26 17:21:36;;;;;;;13.20;4.10;;;;;;;21.86;44.12;100505.19;12213244;19;20011;-83
2023/05/26 17:25:39;;;;;;;10.63;4.05;;;;;;;21.75;44.59;100501.78;12217472;19;20018;-82
2023/05/26 17:29:41;;;;;;;13.00;3.93;;;;;;;21.61;45.33;100509.31;12196791;19;19998;-82
2023/05/26 17:33:45;;;;;;;12.10;3.78;;;;;;;21.55;45.71;100513.34;12225954;19;20034;-80
2023/05/26 17:37:48;;;;;;;12.32;4.15;;;;;;;21.52;45.05;100514.78;12223935;19;20010;-82
2023/05/26 17:41:51;;;;;;;15.70;5.03;;;;;;;21.52;45.01;100509.16;12208391;19;20070;-83
2023/05/26 17:45:53;;;;;;;11.50;5.13;;;;;;;21.37;45.48;100518.66;12231272;19;20078;-82
2023/05/26 17:49:56;;;;;;;15.43;4.13;;;;;;;21.22;45.89;100523.66;12232016;19;20438;-82
2023/05/26 17:53:59;;;;;;;13.13;3.85;;;;;;;;;;12208091;19;20275;-79
2023/05/26 17:58:02;;;;;;;13.67;4.03;;;;;;;21.01;46.71;100517.53;12235274;19;20010;-83
2023/05/26 18:02:05;;;;;;;15.65;4.63;;;;;;;20.97;46.33;100516.44;12213650;19;20016;-83
2023/05/26 18:06:13;;;;;;;10.35;4.15;;;;;;;20.81;47.09;100522.25;12220120;19;20038;-82
2023/05/26 18:10:15;;;;;;;12.75;4.70;;;;;;;20.70;47.03;100520.72;12225829;19;20010;-81
2023/05/26 18:14:18;;;;;;;12.85;3.63;;;;;;;20.58;48.11;100520.34;12201344;19;20082;-83
2023/05/26 18:18:21;;;;;;;14.93;4.50;;;;;;;20.58;48.13;100528.72;12225886;19;20002;-83
2023/05/26 18:22:23;;;;;;;12.73;4.07;;;;;;;20.53;48.09;100526.84;12226406;19;20073;-82
2023/05/26 18:26:26;;;;;;;14.77;4.90;;;;;;;20.30;48.74;100524.84;12203179;19;20018;-82
2023/05/26 18:30:28;;;;;;;13.95;4.45;;;;;;;20.08;49.09;100534.59;12223162;19;20244;-83
2023/05/26 18:34:30;;;;;;;14.95;4.05;;;;;;;19.88;49.98;100527.25;12221934;19;20034;-83